Time;durP1;ratioP1;P1;durP2;ratioP2;P2;SDS_P1;SDS_P2;PMS_P1;PMS_P2;Temp;Humidity;BMP_temperature;BMP_pressure;BME280_temperature;BME280_humidity;BME280_pressure;Samples;Min_cycle;Max_cycle;Signal;HPM_P1;HPM_P2
2023/08/02 00:00:10;;;;;;;4.93;4.53;;;15.90;99.90;;;;;;4997589;28;20583;-61
2023/08/02 00:02:38;;;;;;;5.30;4.90;;;15.80;99.90;;;;;;4996988;28;20559;-62
2023/08/02 00:05:07;;;;;;;5.17;4.77;;;15.80;99.90;;;;;;5001141;28;20472;-62
2023/08/02 00:07:35;;;;;;;5.17;4.77;;;15.70;99.90;;;;;;5001088;28;20554;-62
2023/08/02 00:10:03;;;;;;;5.27;4.87;;;15.70;99.90;;;;;;5010985;28;20491;-62
2023/08/02 00:12:33;;;;;;;5.03;4.73;;;15.70;99.90;;;;;;5015873;28;20511;-62
2023/08/02 00:15:00;;;;;;;5.27;4.43;;;15.70;99.90;;;;;;5003521;28;20563;-62
2023/08/02 00:17:28;;;;;;;4.77;4.40;;;15.70;99.90;;;;;;5001180;28;20567;-61
2023/08/02 00:19:57;;;;;;;6.33;4.73;;;15.80;99.90;;;;;;5001418;28;20488;-62
2023/08/02 00:22:25;;;;;;;5.60;4.97;;;15.80;99.90;;;;;;5000803;28;20516;-61
2023/08/02 00:24:53;;;;;;;5.53;5.03;;;15.80;99.90;;;;;;5001551;28;21054;-62
2023/08/02 00:27:21;;;;;;;5.43;4.90;;;15.80;99.90;;;;;;4998524;28;20482;-62
2023/08/02 00:29:52;;;;;;;5.60;5.10;;;15.80;99.90;;;;;;4999828;28;20503;-62
2023/08/02 00:32:20;;;;;;;6.50;6.10;;;15.80;99.90;;;;;;4994963;28;20493;-62
2023/08/02 00:34:54;;;;;;;5.10;4.70;;;15.80;99.90;;;;;;5006838;28;20481;-62
2023/08/02 00:37:22;;;;;;;6.17;5.50;;;15.80;99.90;;;;;;5005531;28;21213;-62
2023/08/02 00:39:52;;;;;;;5.30;5.00;;;15.80;99.90;;;;;;5004510;28;20591;-62
2023/08/02 00:42:21;;;;;;;5.53;5.10;;;15.70;99.90;;;;;;5004361;28;20562;-62
2023/08/02 00:44:50;;;;;;;4.80;4.40;;;15.70;99.90;;;;;;5011601;28;20476;-62
2023/08/02 00:47:19;;;;;;;7.03;6.17;;;15.80;99.90;;;;;;5011523;28;21056;-62
2023/08/02 00:49:47;;;;;;;5.30;4.80;;;15.80;99.90;;;;;;5011521;28;20585;-62
2023/08/02 00:52:15;;;;;;;5.20;4.80;;;15.80;99.90;;;;;;5009581;28;20490;-62
2023/08/02 00:54:43;;;;;;;5.53;5.13;;;15.70;99.90;;;;;;5011202;28;21033;-62
2023/08/02 00:57:11;;;;;;;5.90;5.23;;;15.80;99.90;;;;;;5011044;28;21060;-62
2023/08/02 00:59:41;;;;;;;5.80;5.30;;;15.80;99.90;;;;;;5009294;28;20495;-62
2023/08/02 01:02:11;;;;;;;5.87;5.40;;;15.80;99.90;;;;;;5010402;28;20486;-61
2023/08/02 01:04:39;;;;;;;5.83;5.23;;;15.70;99.90;;;;;;5011463;28;20464;-63
2023/08/02 01:07:15;;;;;;;6.63;6.03;;;15.70;99.90;;;;;;5006447;28;20514;-62
2023/08/02 01:09:47;;;;;;;6.50;6.00;;;15.70;99.90;;;;;;5009081;28;20530;-61
2023/08/02 01:12:18;;;;;;;6.87;6.10;;;15.70;99.90;;;;;;5010506;28;20575;-61
2023/08/02 01:14:50;;;;;;;6.50;5.90;;;15.70;99.90;;;;;;5008652;28;21007;-62
2023/08/02 01:17:25;;;;;;;6.50;6.00;;;15.60;99.90;;;;;;5010159;28;20483;-61
2023/08/02 01:20:03;;;;;;;6.77;6.07;;;15.70;99.90;;;;;;5010601;28;20526;-62
2023/08/02 01:22:31;;;;;;;5.43;5.03;;;15.70;99.90;;;;;;5009918;28;20505;-62
2023/08/02 01:25:00;;;;;;;6.17;5.67;;;15.60;99.90;;;;;;5009565;28;20476;-62
2023/08/02 01:27:35;;;;;;;5.93;5.53;;;15.60;99.90;;;;;;5010594;28;20471;-62
2023/08/02 01:30:04;;;;;;;6.90;6.40;;;15.70;99.90;;;;;;5011253;28;20578;-62
2023/08/02 01:32:33;;;;;;;6.10;5.60;;;15.70;99.90;;;;;;5007629;28;20527;-61
2023/08/02 01:35:02;;;;;;;5.30;4.90;;;15.60;99.90;;;;;;5010775;28;20515;-62
2023/08/02 01:37:32;;;;;;;6.73;6.13;;;15.60;99.90;;;;;;5010370;28;20530;-62
2023/08/02 01:40:00;;;;;;;6.73;6.00;;;15.60;99.90;;;;;;5008146;28;20519;-62
2023/08/02 01:42:28;;;;;;;6.37;5.80;;;15.50;99.90;;;;;;5007671;28;20484;-62
2023/08/02 01:44:56;;;;;;;6.70;6.13;;;15.50;99.90;;;;;;5009838;28;20472;-62
2023/08/02 01:47:24;;;;;;;6.70;6.10;;;15.50;99.90;;;;;;5010501;28;20500;-62
2023/08/02 01:49:52;;;;;;;6.73;6.17;;;15.60;99.90;;;;;;5007607;28;20531;-62
2023/08/02 01:52:21;;;;;;;6.70;6.10;;;15.60;99.90;;;;;;5009833;28;21076;-62
2023/08/02 01:54:49;;;;;;;6.70;6.20;;;15.70;99.90;;;;;;5010178;28;20568;-61
2023/08/02 01:57:17;;;;;;;7.20;6.50;;;15.70;99.90;;;;;;5010809;28;20464;-62
2023/08/02 01:59:45;;;;;;;6.70;6.10;;;15.70;99.90;;;;;;5007890;28;20520;-62
2023/08/02 02:02:13;;;;;;;7.47;6.77;;;15.70;99.90;;;;;;5009171;28;20883;-62
2023/08/02 02:04:42;;;;;;;6.83;6.20;;;15.70;99.90;;;;;;5009929;28;20460;-61
2023/08/02 02:07:10;;;;;;;7.93;6.30;;;15.60;99.90;;;;;;5001049;28;20942;-62
2023/08/02 02:09:40;;;;;;;7.37;6.70;;;15.60;99.90;;;;;;5007783;28;21013;-62
2023/08/02 02:12:08;;;;;;;7.27;6.67;;;15.60;99.90;;;;;;5007305;28;20532;-62
2023/08/02 02:14:36;;;;;;;7.30;6.70;;;15.60;99.90;;;;;;5001038;28;21082;-62
2023/08/02 02:17:05;;;;;;;7.80;7.00;;;15.60;99.90;;;;;;5002553;28;20561;-62
2023/08/02 02:19:33;;;;;;;7.13;6.60;;;15.60;99.90;;;;;;5001609;28;21057;-62
2023/08/02 02:22:01;;;;;;;6.83;6.27;;;15.60;99.90;;;;;;5002243;28;20484;-63
2023/08/02 02:24:29;;;;;;;7.50;6.80;;;15.60;99.90;;;;;;5000224;28;20891;-61
2023/08/02 02:26:58;;;;;;;6.20;5.80;;;15.60;99.90;;;;;;5004016;28;20930;-62
2023/08/02 02:29:26;;;;;;;6.20;5.70;;;15.60;99.90;;;;;;5004945;28;21029;-62
2023/08/02 02:31:54;;;;;;;6.30;5.80;;;15.60;99.90;;;;;;5016660;28;20507;-62
2023/08/02 02:34:22;;;;;;;6.10;5.70;;;15.60;99.90;;;;;;5018179;28;20485;-62
2023/08/02 02:36:50;;;;;;;5.97;5.57;;;15.60;99.90;;;;;;5014793;28;20497;-62
2023/08/02 02:39:18;;;;;;;5.90;5.47;;;15.60;99.90;;;;;;5005254;28;20477;-62
2023/08/02 02:41:46;;;;;;;6.00;5.50;;;15.60;99.90;;;;;;5003273;28;20474;-62
2023/08/02 02:44:15;;;;;;;5.60;5.10;;;15.60;99.90;;;;;;5004043;28;20474;-62
2023/08/02 02:46:43;;;;;;;5.53;4.80;;;15.60;99.90;;;;;;5003563;28;21056;-62
2023/08/02 02:49:11;;;;;;;5.40;5.00;;;15.60;99.90;;;;;;4999342;28;20571;-62
2023/08/02 02:51:39;;;;;;;5.10;4.73;;;15.60;99.90;;;;;;5004794;28;21028;-62
2023/08/02 02:54:07;;;;;;;5.30;4.80;;;15.60;99.90;;;;;;5000290;28;20559;-62
2023/08/02 02:56:35;;;;;;;4.53;4.13;;;15.50;99.90;;;;;;5004594;28;20472;-61
2023/08/02 02:59:03;;;;;;;4.27;3.97;;;15.50;99.90;;;;;;5006145;28;20488;-62
2023/08/02 03:01:32;;;;;;;4.43;4.03;;;15.50;99.90;;;;;;5002385;28;21453;-62
2023/08/02 03:04:00;;;;;;;4.33;3.90;;;15.50;99.90;;;;;;5006675;28;21052;-61
2023/08/02 03:06:28;;;;;;;3.67;3.47;;;15.50;99.90;;;;;;5007334;28;20534;-61
2023/08/02 03:08:56;;;;;;;3.47;3.20;;;15.50;99.90;;;;;;5003699;28;20607;-62
2023/08/02 03:11:24;;;;;;;3.80;3.50;;;15.50;99.90;;;;;;5001991;28;20932;-62
2023/08/02 03:13:52;;;;;;;3.27;3.07;;;15.50;99.90;;;;;;4998195;28;20575;-62
2023/08/02 03:16:20;;;;;;;3.00;2.80;;;15.50;99.90;;;;;;5002890;28;20507;-62
2023/08/02 03:18:50;;;;;;;3.07;2.80;;;15.50;99.90;;;;;;5002326;28;20480;-62
2023/08/02 03:21:18;;;;;;;3.00;2.80;;;15.50;99.90;;;;;;5001872;28;20939;-62
2023/08/02 03:23:46;;;;;;;3.70;3.50;;;15.50;99.90;;;;;;4998514;28;20488;-62
2023/08/02 03:26:14;;;;;;;3.50;3.20;;;15.50;99.90;;;;;;5000096;28;20977;-62
2023/08/02 03:28:42;;;;;;;3.13;2.93;;;15.50;99.90;;;;;;4999450;28;20508;-62
2023/08/02 03:31:10;;;;;;;5.23;3.20;;;15.50;99.90;;;;;;4999596;28;20506;-62
2023/08/02 03:33:38;;;;;;;3.67;3.40;;;15.50;99.90;;;;;;4998006;28;20527;-62
2023/08/02 03:36:07;;;;;;;3.67;3.30;;;15.50;99.90;;;;;;4998400;28;20472;-62
2023/08/02 03:38:35;;;;;;;4.13;2.97;;;15.50;99.90;;;;;;5001652;28;20574;-62
2023/08/02 03:41:03;;;;;;;2.97;2.87;;;15.50;99.90;;;;;;5000794;28;21039;-62
2023/08/02 03:43:31;;;;;;;4.00;3.57;;;15.60;99.90;;;;;;4999658;28;20571;-61
2023/08/02 03:45:59;;;;;;;4.20;3.80;;;15.60;99.90;;;;;;5000411;28;20480;-64
2023/08/02 03:48:28;;;;;;;3.17;2.97;;;15.50;99.90;;;;;;5001476;28;20469;-63
2023/08/02 03:50:57;;;;;;;3.43;3.23;;;15.50;99.90;;;;;;4999946;28;20505;-62
2023/08/02 03:53:27;;;;;;;3.83;3.43;;;15.50;99.90;;;;;;5001033;28;20571;-62
2023/08/02 03:55:55;;;;;;;3.93;3.40;;;15.50;99.90;;;;;;5002199;28;20584;-62
2023/08/02 03:58:23;;;;;;;3.27;3.07;;;15.60;99.90;;;;;;4998104;28;20556;-62
2023/08/02 04:00:51;;;;;;;4.53;3.40;;;15.60;99.90;;;;;;4998053;28;20487;-63
2023/08/02 04:03:19;;;;;;;3.30;3.10;;;15.50;99.90;;;;;;4999492;28;21311;-62
2023/08/02 04:05:47;;;;;;;3.03;2.83;;;15.50;99.90;;;;;;5001705;28;20987;-62
2023/08/02 04:08:15;;;;;;;3.10;2.90;;;15.40;99.90;;;;;;5003654;28;20558;-62
2023/08/02 04:10:45;;;;;;;3.20;3.00;;;15.40;99.90;;;;;;5001291;28;20583;-61
2023/08/02 04:13:13;;;;;;;2.93;2.73;;;15.40;99.90;;;;;;5005953;28;20487;-62
2023/08/02 04:15:41;;;;;;;3.20;3.00;;;15.50;99.90;;;;;;5006927;28;21087;-62
2023/08/02 04:18:09;;;;;;;3.03;2.83;;;15.50;99.90;;;;;;5004830;28;20551;-62
2023/08/02 04:20:38;;;;;;;3.60;3.40;;;15.50;99.90;;;;;;5001252;28;20529;-62
2023/08/02 04:23:06;;;;;;;4.17;3.87;;;15.50;99.90;;;;;;5003841;28;20484;-61
2023/08/02 04:25:34;;;;;;;4.20;3.30;;;15.50;99.90;;;;;;5006078;28;20457;-61
2023/08/02 04:28:04;;;;;;;3.53;3.30;;;15.60;99.90;;;;;;5005398;28;20514;-62
2023/08/02 04:30:32;;;;;;;3.43;3.13;;;15.60;99.90;;;;;;5002616;28;20597;-62
2023/08/02 04:33:00;;;;;;;3.97;2.97;;;15.60;99.90;;;;;;5004080;28;20519;-61
2023/08/02 04:35:29;;;;;;;3.73;3.43;;;15.50;99.90;;;;;;5005579;28;21114;-62
2023/08/02 04:37:57;;;;;;;4.03;3.70;;;15.60;99.90;;;;;;5004582;28;20532;-62
2023/08/02 04:40:25;;;;;;;3.70;3.40;;;15.60;99.90;;;;;;5002954;28;20579;-62
2023/08/02 04:42:54;;;;;;;4.30;3.90;;;15.50;99.90;;;;;;5000870;28;20586;-62
2023/08/02 04:45:23;;;;;;;3.80;3.60;;;15.50;99.90;;;;;;5001789;28;20468;-62
2023/08/02 04:47:51;;;;;;;4.57;4.17;;;15.50;99.90;;;;;;5003335;28;20476;-62
2023/08/02 04:50:19;;;;;;;4.33;4.00;;;15.50;99.90;;;;;;5002799;28;20893;-62
2023/08/02 04:52:47;;;;;;;5.97;5.37;;;15.50;99.90;;;;;;5002470;28;21067;-61
2023/08/02 04:55:16;;;;;;;5.77;5.17;;;15.50;99.90;;;;;;4999770;28;20584;-62
2023/08/02 04:57:44;;;;;;;5.80;5.40;;;15.50;99.90;;;;;;5003930;28;20474;-61
2023/08/02 05:00:13;;;;;;;6.13;5.67;;;15.50;99.90;;;;;;5004018;28;20576;-62
2023/08/02 05:02:42;;;;;;;6.70;6.20;;;15.60;99.90;;;;;;5003244;28;20568;-62
2023/08/02 05:05:10;;;;;;;8.77;8.07;;;15.60;99.90;;;;;;5004078;28;20464;-62
2023/08/02 05:07:39;;;;;;;9.10;7.20;;;15.70;99.90;;;;;;4999794;28;20563;-62
2023/08/02 05:10:09;;;;;;;8.03;7.30;;;15.70;99.90;;;;;;5000679;28;20519;-62
2023/08/02 05:12:39;;;;;;;8.97;8.20;;;15.70;99.90;;;;;;5002600;28;20841;-62
2023/08/02 05:15:08;;;;;;;9.23;8.63;;;15.70;99.90;;;;;;5004338;28;20495;-62
2023/08/02 05:17:36;;;;;;;9.40;8.60;;;15.70;99.90;;;;;;5007355;28;20468;-62
2023/08/02 05:20:06;;;;;;;10.17;9.27;;;15.70;99.90;;;;;;5009978;28;20495;-62
2023/08/02 05:22:34;;;;;;;9.73;8.93;;;15.70;99.90;;;;;;5008229;28;20547;-62
2023/08/02 05:25:03;;;;;;;10.17;9.00;;;15.70;99.90;;;;;;5010122;28;20496;-62
2023/08/02 05:27:31;;;;;;;9.57;8.80;;;15.70;99.90;;;;;;5009318;28;20472;-62
2023/08/02 05:30:00;;;;;;;10.97;8.80;;;15.70;99.90;;;;;;5004512;28;20985;-62
2023/08/02 05:32:28;;;;;;;10.30;9.40;;;15.70;99.90;;;;;;4999558;28;20492;-62
2023/08/02 05:34:56;;;;;;;8.93;8.13;;;15.80;99.90;;;;;;5005234;28;20491;-63
2023/08/02 05:37:28;;;;;;;8.57;7.87;;;15.80;99.90;;;;;;5004302;28;20476;-61
2023/08/02 05:39:56;;;;;;;9.23;8.33;;;15.80;99.90;;;;;;5000957;28;21703;-62
2023/08/02 05:42:24;;;;;;;9.97;9.17;;;15.80;99.90;;;;;;4998902;28;21204;-61
2023/08/02 05:44:52;;;;;;;10.43;9.20;;;15.80;99.90;;;;;;5002519;28;21375;-61
2023/08/02 05:47:20;;;;;;;10.00;9.00;;;15.80;99.90;;;;;;5003560;28;21286;-62
2023/08/02 05:49:49;;;;;;;8.70;7.90;;;15.80;99.90;;;;;;5002904;28;20515;-61
2023/08/02 05:52:17;;;;;;;8.53;7.77;;;15.90;99.90;;;;;;4999987;28;20492;-62
2023/08/02 05:54:46;;;;;;;8.23;7.53;;;15.90;99.90;;;;;;5001141;28;20480;-61
2023/08/02 05:57:14;;;;;;;8.53;7.70;;;16.00;99.90;;;;;;5002204;28;20957;-61
2023/08/02 05:59:42;;;;;;;8.13;7.33;;;16.00;99.90;;;;;;5001725;28;20500;-62
2023/08/02 06:02:10;;;;;;;7.80;7.00;;;16.10;99.90;;;;;;5002196;28;20488;-62
2023/08/02 06:04:40;;;;;;;7.97;7.17;;;16.10;99.90;;;;;;4999422;28;20469;-62
2023/08/02 06:07:08;;;;;;;8.63;7.40;;;16.20;99.90;;;;;;5003521;28;20465;-62
2023/08/02 06:09:36;;;;;;;8.30;7.50;;;16.10;99.90;;;;;;5002769;28;21064;-61
2023/08/02 06:12:07;;;;;;;8.63;7.80;;;16.10;99.90;;;;;;5002726;28;20562;-62
2023/08/02 06:14:35;;;;;;;8.27;7.37;;;16.10;99.90;;;;;;5002737;28;20510;-61
2023/08/02 06:17:03;;;;;;;9.07;8.20;;;16.10;99.90;;;;;;5001881;28;20822;-61
2023/08/02 06:19:31;;;;;;;9.27;8.37;;;16.10;99.90;;;;;;5001867;28;20989;-61
2023/08/02 06:21:59;;;;;;;10.07;8.13;;;16.10;99.90;;;;;;4999534;28;20484;-61
2023/08/02 06:24:27;;;;;;;8.73;7.87;;;16.10;99.90;;;;;;5004501;28;20828;-62
2023/08/02 06:26:55;;;;;;;9.40;8.50;;;16.10;99.90;;;;;;5002821;28;21049;-62
2023/08/02 06:29:24;;;;;;;8.97;7.77;;;16.20;99.90;;;;;;5000904;28;21065;-62
2023/08/02 06:31:52;;;;;;;9.10;8.30;;;16.20;99.90;;;;;;4999076;28;21133;-62
2023/08/02 06:34:20;;;;;;;9.40;8.50;;;16.10;99.90;;;;;;5000871;28;20566;-61
2023/08/02 06:36:48;;;;;;;10.10;9.10;;;16.10;99.90;;;;;;4999687;28;20877;-61
2023/08/02 06:39:16;;;;;;;9.90;9.00;;;16.10;99.90;;;;;;5001715;28;20923;-62
2023/08/02 06:41:44;;;;;;;10.00;9.07;;;16.20;99.90;;;;;;5000557;28;20492;-62
2023/08/02 06:44:13;;;;;;;8.60;8.00;;;16.20;99.90;;;;;;4999648;28;20534;-62
2023/08/02 06:46:42;;;;;;;11.23;9.00;;;16.20;99.90;;;;;;5001924;28;20460;-61
2023/08/02 06:49:10;;;;;;;10.30;9.23;;;16.30;99.90;;;;;;5001616;28;20568;-61
2023/08/02 06:51:39;;;;;;;9.47;8.57;;;16.30;99.90;;;;;;5000646;28;20563;-64
2023/08/02 06:54:08;;;;;;;9.83;8.80;;;16.40;99.90;;;;;;4999992;28;20505;-61
2023/08/02 06:56:36;;;;;;;9.23;8.43;;;16.40;99.90;;;;;;4999184;28;20492;-62
2023/08/02 06:59:04;;;;;;;10.63;9.40;;;16.50;99.90;;;;;;5001087;28;20650;-61
2023/08/02 07:01:32;;;;;;;10.37;9.37;;;16.60;99.90;;;;;;5002922;28;20484;-61
2023/08/02 07:04:02;;;;;;;10.10;9.10;;;16.60;99.90;;;;;;5002679;28;20560;-61
2023/08/02 07:06:30;;;;;;;9.60;8.83;;;16.70;99.90;;;;;;5002866;28;20910;-61
2023/08/02 07:08:58;;;;;;;9.80;8.90;;;16.70;99.90;;;;;;4997391;28;20473;-62
2023/08/02 07:11:26;;;;;;;9.20;8.40;;;16.80;99.90;;;;;;4999562;28;20496;-62
2023/08/02 07:14:04;;;;;;;9.10;8.30;;;16.90;99.90;;;;;;5003237;28;20487;-61
2023/08/02 07:16:32;;;;;;;8.53;7.73;;;17.00;99.90;;;;;;5003303;28;20488;-61
2023/08/02 07:19:02;;;;;;;9.30;8.20;;;17.00;99.90;;;;;;5000903;28;20791;-61
2023/08/02 07:21:31;;;;;;;9.13;8.23;;;17.10;99.90;;;;;;4999478;28;20495;-61
2023/08/02 07:23:59;;;;;;;11.07;9.47;;;17.10;99.90;;;;;;5002366;28;20966;-61
2023/08/02 07:26:27;;;;;;;9.53;8.63;;;17.10;99.90;;;;;;5001590;28;20468;-61
2023/08/02 07:28:55;;;;;;;8.80;8.00;;;17.10;99.90;;;;;;4999856;28;20925;-61
2023/08/02 07:31:23;;;;;;;8.50;7.70;;;17.20;99.90;;;;;;4997796;28;21359;-61
2023/08/02 07:33:51;;;;;;;8.70;7.77;;;17.20;99.90;;;;;;4998756;28;20496;-62
2023/08/02 07:36:21;;;;;;;7.97;7.10;;;17.30;99.90;;;;;;5001060;28;20554;-61
2023/08/02 07:38:49;;;;;;;10.40;7.50;;;17.20;99.90;;;;;;5001473;28;20946;-62
2023/08/02 07:41:17;;;;;;;7.90;6.90;;;17.20;99.90;;;;;;4999326;28;20508;-62
2023/08/02 07:43:49;;;;;;;8.20;7.40;;;17.20;99.90;;;;;;4999965;28;20488;-61
2023/08/02 07:46:18;;;;;;;8.57;7.83;;;17.20;99.90;;;;;;4997698;28;20465;-62
2023/08/02 07:48:46;;;;;;;8.33;7.43;;;17.30;99.90;;;;;;5000164;28;20468;-61
2023/08/02 07:51:14;;;;;;;8.03;7.33;;;17.20;99.90;;;;;;5000963;28;20494;-62
2023/08/02 07:53:44;;;;;;;9.20;6.83;;;17.30;99.90;;;;;;5017359;28;20487;-62
2023/08/02 07:56:12;;;;;;;7.60;6.87;;;17.30;99.90;;;;;;5013924;28;20492;-62
2023/08/02 07:58:40;;;;;;;7.80;7.10;;;17.40;99.90;;;;;;5003303;28;20476;-62
2023/08/02 08:01:09;;;;;;;7.20;6.40;;;17.40;99.90;;;;;;5001482;28;20732;-61
2023/08/02 08:03:37;;;;;;;7.93;6.63;;;17.40;99.90;;;;;;5000308;28;20543;-61
2023/08/02 08:06:13;;;;;;;8.53;7.47;;;17.40;99.90;;;;;;5001413;28;20587;-61
2023/08/02 08:08:42;;;;;;;7.70;5.70;;;17.40;99.90;;;;;;4998946;28;20471;-62
2023/08/02 08:11:11;;;;;;;6.77;6.03;;;17.40;99.90;;;;;;4997728;28;21016;-64
2023/08/02 08:13:39;;;;;;;7.00;6.30;;;17.50;99.90;;;;;;5000101;28;21074;-61
2023/08/02 08:16:07;;;;;;;6.93;5.90;;;17.70;99.90;;;;;;5000696;28;20542;-61
2023/08/02 08:18:36;;;;;;;5.83;5.30;;;17.80;99.90;;;;;;4998643;28;20472;-62
2023/08/02 08:21:05;;;;;;;10.70;5.90;;;17.90;99.90;;;;;;4997245;28;20585;-61
2023/08/02 08:23:34;;;;;;;7.13;5.70;;;17.90;99.90;;;;;;5000520;28;20584;-61
2023/08/02 08:26:02;;;;;;;7.30;6.27;;;17.90;99.90;;;;;;5002616;28;20496;-62
2023/08/02 08:28:31;;;;;;;7.10;6.37;;;17.90;99.90;;;;;;5002227;28;20566;-62
2023/08/02 08:31:00;;;;;;;7.53;6.07;;;17.90;99.90;;;;;;5000807;28;21239;-62
2023/08/02 08:33:29;;;;;;;7.07;6.07;;;17.90;99.90;;;;;;4997036;28;21012;-62
2023/08/02 08:35:57;;;;;;;7.90;5.53;;;18.00;99.90;;;;;;4999311;28;20563;-62
2023/08/02 08:38:25;;;;;;;6.17;5.50;;;18.10;99.90;;;;;;5000737;28;20559;-62
2023/08/02 08:40:54;;;;;;;7.40;5.87;;;18.30;99.90;;;;;;5000588;28;20505;-62
2023/08/02 08:43:27;;;;;;;9.57;5.10;;;18.30;99.90;;;;;;5000937;28;20574;-62
2023/08/02 08:45:57;;;;;;;5.60;5.20;;;18.40;99.90;;;;;;4998196;28;20500;-62
2023/08/02 08:48:26;;;;;;;5.87;5.10;;;18.50;99.90;;;;;;4999464;28;20896;-61
2023/08/02 08:50:56;;;;;;;6.77;5.10;;;18.50;99.90;;;;;;4998901;28;21064;-62
2023/08/02 08:53:31;;;;;;;7.60;5.70;;;18.60;99.90;;;;;;5001053;28;20571;-62
2023/08/02 08:56:01;;;;;;;7.50;5.10;;;18.70;99.90;;;;;;5004077;28;20602;-61
2023/08/02 08:58:29;;;;;;;5.80;4.83;;;18.80;99.90;;;;;;5000544;28;20523;-62
2023/08/02 09:00:59;;;;;;;8.13;4.40;;;18.80;99.90;;;;;;5004350;28;20637;-62
2023/08/02 09:03:27;;;;;;;5.57;4.90;;;18.90;99.90;;;;;;5003016;28;20498;-61
2023/08/02 09:06:00;;;;;;;6.63;4.90;;;19.00;99.90;;;;;;5003678;28;20984;-62
2023/08/02 09:08:28;;;;;;;5.37;4.30;;;19.00;99.90;;;;;;5002720;28;20468;-62
2023/08/02 09:10:58;;;;;;;7.23;4.80;;;19.00;99.90;;;;;;5000010;28;20521;-62
2023/08/02 09:13:27;;;;;;;6.30;4.57;;;19.00;99.90;;;;;;5000731;28;20514;-62
2023/08/02 09:16:08;;;;;;;5.33;4.53;;;19.00;99.90;;;;;;5004727;28;20957;-62
2023/08/02 09:18:38;;;;;;;5.13;4.60;;;19.10;99.90;;;;;;5003654;28;20498;-62
2023/08/02 09:21:06;;;;;;;5.30;4.30;;;19.10;99.90;;;;;;5003876;28;20495;-64
2023/08/02 09:23:35;;;;;;;5.80;3.93;;;19.20;99.90;;;;;;5000004;28;20491;-62
2023/08/02 09:26:14;;;;;;;6.50;4.27;;;19.20;99.90;;;;;;5002303;28;20828;-62
2023/08/02 09:28:57;;;;;;;4.90;3.90;;;19.30;99.90;;;;;;5001998;28;21043;-61
2023/08/02 09:31:28;;;;;;;4.90;4.23;;;19.40;99.90;;;;;;5002080;28;22742;-62
2023/08/02 09:33:56;;;;;;;7.83;4.40;;;19.50;99.90;;;;;;5002346;28;20495;-62
2023/08/02 09:36:26;;;;;;;5.10;4.40;;;19.50;99.90;;;;;;5003594;28;21014;-62
2023/08/02 09:39:01;;;;;;;7.07;5.03;;;19.40;99.90;;;;;;4999542;28;20553;-61
2023/08/02 09:41:30;;;;;;;5.33;4.70;;;19.40;99.90;;;;;;5000496;28;20702;-62
2023/08/02 09:44:01;;;;;;;4.90;4.40;;;19.40;99.90;;;;;;5005918;28;20572;-62
2023/08/02 09:46:33;;;;;;;9.20;4.63;;;19.40;99.90;;;;;;5002958;28;20565;-62
2023/08/02 09:49:03;;;;;;;7.53;4.83;;;19.30;99.90;;;;;;5001311;28;20519;-62
2023/08/02 09:51:39;;;;;;;6.23;4.60;;;19.40;99.90;;;;;;4999967;28;20520;-60
2023/08/02 09:54:09;;;;;;;7.77;4.83;;;19.40;99.90;;;;;;5001599;28;20471;-62
2023/08/02 09:56:38;;;;;;;4.63;4.20;;;19.50;99.90;;;;;;5002360;28;20500;-62
2023/08/02 09:59:08;;;;;;;4.67;4.23;;;19.50;99.90;;;;;;5002002;28;20583;-62
2023/08/02 10:01:38;;;;;;;5.33;4.70;;;19.60;99.90;;;;;;5000581;28;21094;-62
2023/08/02 10:04:07;;;;;;;6.23;4.63;;;19.60;99.90;;;;;;5000915;28;20475;-61
2023/08/02 10:06:39;;;;;;;4.50;3.73;;;19.60;99.90;;;;;;5004158;28;20470;-61
2023/08/02 10:09:09;;;;;;;5.10;4.00;;;19.70;99.90;;;;;;5002995;28;20893;-61
2023/08/02 10:11:52;;;;;;;6.83;4.80;;;19.70;99.90;;;;;;4998740;28;20490;-62
2023/08/02 10:14:24;;;;;;;5.50;3.87;;;19.80;99.90;;;;;;5001063;28;20467;-62
2023/08/02 10:16:53;;;;;;;4.30;3.90;;;19.80;99.90;;;;;;5000507;28;20472;-62
2023/08/02 10:19:21;;;;;;;12.63;7.20;;;19.70;99.90;;;;;;5003219;28;20499;-62
2023/08/02 10:21:52;;;;;;;5.60;4.50;;;19.70;99.90;;;;;;4999208;28;20469;-62
2023/08/02 10:24:20;;;;;;;5.93;4.77;;;19.70;99.90;;;;;;4999805;28;21016;-62
2023/08/02 10:26:48;;;;;;;4.70;3.93;;;19.70;99.90;;;;;;5003164;28;20471;-61
2023/08/02 10:29:17;;;;;;;4.27;3.80;;;19.70;99.90;;;;;;5021412;28;20484;-62
2023/08/02 10:31:45;;;;;;;5.10;4.30;;;19.70;99.90;;;;;;5010173;28;20556;-62
2023/08/02 10:34:50;;;;;;;5.37;3.90;;;19.70;99.90;;;;;;5002763;28;21157;-62
2023/08/02 10:37:19;;;;;;;4.67;3.97;;;19.70;99.90;;;;;;4999968;28;20563;-61
2023/08/02 10:39:56;;;;;;;6.20;3.80;;;19.70;99.90;;;;;;4999372;28;20488;-62
2023/08/02 10:42:29;;;;;;;6.30;4.10;;;19.60;99.90;;;;;;5001087;28;20480;-62
2023/08/02 10:45:16;;;;;;;5.50;4.40;;;19.50;99.90;;;;;;5000876;28;21308;-62
2023/08/02 10:47:44;;;;;;;5.30;4.30;;;19.50;99.90;;;;;;5000016;28;20456;-61
2023/08/02 10:50:48;;;;;;;5.20;4.33;;;19.50;99.90;;;;;;4999317;28;20858;-62
2023/08/02 10:53:17;;;;;;;4.90;3.90;;;19.40;99.90;;;;;;4999724;28;20492;-62
2023/08/02 10:56:05;;;;;;;5.67;5.00;;;19.40;99.90;;;;;;5002118;28;20571;-61
2023/08/02 10:58:47;;;;;;;5.70;4.13;;;19.50;99.90;;;;;;5002678;28;20492;-61
2023/08/02 11:01:15;;;;;;;5.00;4.07;;;19.50;99.90;;;;;;4999284;28;20495;-62
2023/08/02 11:03:44;;;;;;;4.23;3.83;;;19.50;99.90;;;;;;4998497;28;21068;-61
2023/08/02 11:06:27;;;;;;;5.73;4.40;;;19.50;99.90;;;;;;5002388;28;20907;-62
2023/08/02 11:08:55;;;;;;;6.93;4.10;;;19.50;99.90;;;;;;5000579;28;20480;-61
2023/08/02 11:11:30;;;;;;;4.53;4.13;;;19.60;99.90;;;;;;5000991;28;20498;-61
2023/08/02 11:13:58;;;;;;;4.57;3.30;;;19.50;99.90;;;;;;4996252;28;20585;-62
2023/08/02 11:16:28;;;;;;;5.50;3.60;;;19.50;99.90;;;;;;5002736;28;20468;-62
2023/08/02 11:19:08;;;;;;;6.93;4.37;;;19.50;99.90;;;;;;5000156;28;21238;-61
2023/08/02 11:21:37;;;;;;;6.10;4.50;;;19.50;99.90;;;;;;4999721;28;20489;-62
2023/08/02 11:24:05;;;;;;;4.90;4.00;;;19.50;99.90;;;;;;4999051;28;20476;-62
2023/08/02 11:26:34;;;;;;;4.73;3.97;;;19.50;99.90;;;;;;4998818;28;20909;-61
2023/08/02 11:29:09;;;;;;;5.37;3.87;;;19.50;99.90;;;;;;5003525;28;20559;-61
2023/08/02 11:31:37;;;;;;;5.27;3.90;;;19.50;99.90;;;;;;5000462;28;20496;-61
2023/08/02 11:34:05;;;;;;;7.83;4.13;;;19.50;99.90;;;;;;5001349;28;20986;-62
2023/08/02 11:36:34;;;;;;;5.03;4.27;;;19.50;99.90;;;;;;5000149;28;20477;-62
2023/08/02 11:39:03;;;;;;;5.97;4.20;;;19.50;99.90;;;;;;4999865;28;20484;-62
2023/08/02 11:41:31;;;;;;;6.83;4.30;;;19.50;99.90;;;;;;5001342;28;20988;-62
2023/08/02 11:43:59;;;;;;;4.43;3.80;;;19.50;99.90;;;;;;5001286;28;20560;-61
2023/08/02 11:46:27;;;;;;;6.20;4.10;;;19.50;99.90;;;;;;4999537;28;20491;-62
2023/08/02 11:49:06;;;;;;;5.90;4.10;;;19.50;99.90;;;;;;4998912;28;20469;-61
2023/08/02 11:51:40;;;;;;;5.47;4.03;;;19.50;99.90;;;;;;4999385;28;21554;-61
2023/08/02 11:54:10;;;;;;;5.30;3.93;;;19.50;99.90;;;;;;5000072;28;20914;-62
2023/08/02 11:56:38;;;;;;;3.73;3.43;;;19.50;99.90;;;;;;5000797;28;20535;-61
2023/08/02 11:59:11;;;;;;;4.53;3.40;;;19.40;99.90;;;;;;5002544;28;20520;-62
2023/08/02 12:01:42;;;;;;;3.87;3.57;;;19.40;99.90;;;;;;4999227;28;20583;-61
2023/08/02 12:04:10;;;;;;;4.10;3.70;;;19.30;99.90;;;;;;5000708;28;20988;-61
2023/08/02 12:06:47;;;;;;;3.60;3.03;;;19.30;99.90;;;;;;5001155;28;20846;-61
2023/08/02 12:09:17;;;;;;;6.23;3.20;;;19.30;99.90;;;;;;4999755;28;20472;-61
2023/08/02 12:11:51;;;;;;;3.87;3.30;;;19.30;99.90;;;;;;4996504;28;21537;-61
2023/08/02 12:14:28;;;;;;;4.57;2.80;;;19.30;99.90;;;;;;4998875;28;20460;-61
2023/08/02 12:16:56;;;;;;;4.13;2.83;;;19.30;99.90;;;;;;5001544;28;21095;-61
2023/08/02 12:19:38;;;;;;;3.53;2.93;;;19.20;99.90;;;;;;5001076;28;20590;-62
2023/08/02 12:22:06;;;;;;;4.63;3.30;;;19.20;99.90;;;;;;5000604;28;20480;-62
2023/08/02 12:24:36;;;;;;;3.80;3.40;;;19.10;99.90;;;;;;4999939;28;20480;-62
2023/08/02 12:27:15;;;;;;;3.20;2.90;;;19.00;99.90;;;;;;4998821;28;20544;-62
2023/08/02 12:29:44;;;;;;;4.60;3.50;;;19.00;99.90;;;;;;5003161;28;20488;-61
2023/08/02 12:32:24;;;;;;;4.40;3.20;;;19.10;99.90;;;;;;4995276;28;21101;-62
2023/08/02 12:34:52;;;;;;;3.80;3.30;;;19.30;99.90;;;;;;5003288;28;20483;-62
2023/08/02 12:37:33;;;;;;;3.23;2.83;;;19.50;99.90;;;;;;5002385;28;20530;-62
2023/08/02 12:40:03;;;;;;;3.40;3.03;;;19.70;99.90;;;;;;5003713;28;20853;-62
2023/08/02 12:42:31;;;;;;;4.13;3.80;;;20.00;99.90;;;;;;5004745;28;20465;-62
2023/08/02 12:45:00;;;;;;;3.20;2.90;;;20.20;99.90;;;;;;5011921;28;20559;-61
2023/08/02 12:47:43;;;;;;;4.07;3.43;;;20.40;99.90;;;;;;5011223;28;20474;-62
2023/08/02 12:50:12;;;;;;;3.67;3.10;;;20.30;99.90;;;;;;5009822;28;20483;-62
2023/08/02 12:52:40;;;;;;;3.60;2.73;;;20.20;99.90;;;;;;5010570;28;21591;-62
2023/08/02 12:55:09;;;;;;;3.10;2.70;;;20.10;99.90;;;;;;5013112;28;20471;-62
2023/08/02 12:57:37;;;;;;;3.53;3.23;;;20.00;99.90;;;;;;5012109;28;20542;-62